Rosecrans, Pennsylvania
Current Conditions -  °F | °C
As of 1:54 AM on Tuesday 21 Oct 2014 (Local Time) from KIPT Reporting Station
Overcast Overcast  
Wind Chill: 49°   Ceiling: 6500
Heat Index: 49°   Visibility: 10mi
Dew Point: 43°   Wind: 0mph
Humidity: 80%   Direction: NA
Pressure: 29.86"   Gusts: NA
Location:  41.029°N, 77.3175°W
Report Text: KIPT 210554Z AUTO 00000KT 10SM BKN065 OVC090 09/06 A2986 RMK AO2 SLP111 60000 T00940061 10139 20094 58013
Loading
Personal Weather Stations






























Interactive Weather Map
Tropical Storm Tracking
New forecast layout! Learn more

10-Day Weather Forecast

Advertisements
Track Severe Weather on mobile